RYR588 EGPH-EIDW
Flight info
| Callsign | RYR588 |
|---|---|
| Flight time | 0h 46m |
| Altitude | 24000 |
| Route | GOSAM1C GOSAM P600 TRN DCT BLACA P620 NIMAT NIMAT3R |
| Aircraft | B738/M-V/N |
Departure
| Time | 2026-05-07 15:34 |
|---|---|
| Airport | Edinburgh Airport (EGPH) |
Arrival
| Time | 2026-05-07 16:21 |
|---|---|
| Airport | Dublin Airport (EIDW) |
| Time | Latitude | Longitude | Altitude | Speed | Heading |
|---|---|---|---|---|---|
| 2026-05-07 15:00 | 55.94815 | -3.35744 | 107 ft | 0 kts | 208° |
| 2026-05-07 15:25 | 55.94826 | -3.35733 | 106 ft | 3 kts | 211° |
| 2026-05-07 15:25 | 55.94843 | -3.35714 | 104 ft | 3 kts | 219° |
| 2026-05-07 15:25 | 55.94858 | -3.35689 | 105 ft | 3 kts | 233° |
| 2026-05-07 15:25 | 55.94867 | -3.35661 | 106 ft | 3 kts | 266° |
| 2026-05-07 15:26 | 55.94866 | -3.35640 | 105 ft | 1 kts | 298° |
| 2026-05-07 15:26 | 55.94866 | -3.35639 | 105 ft | 0 kts | 298° |
| 2026-05-07 15:27 | 55.94865 | -3.35639 | 105 ft | 0 kts | 298° |
| 2026-05-07 15:29 | 55.94868 | -3.35646 | 105 ft | 3 kts | 298° |
| 2026-05-07 15:29 | 55.94893 | -3.35731 | 107 ft | 12 kts | 298° |
| 2026-05-07 15:29 | 55.94962 | -3.35860 | 107 ft | 16 kts | 352° |
| 2026-05-07 15:30 | 55.95061 | -3.35789 | 108 ft | 15 kts | 15° |
| 2026-05-07 15:30 | 55.95128 | -3.35889 | 108 ft | 13 kts | 304° |
| 2026-05-07 15:30 | 55.95208 | -3.35980 | 105 ft | 15 kts | 349° |
| 2026-05-07 15:30 | 55.95258 | -3.35914 | 106 ft | 8 kts | 58° |
| 2026-05-07 15:31 | 55.95289 | -3.35823 | 106 ft | 9 kts | 58° |
| 2026-05-07 15:31 | 55.95341 | -3.35665 | 107 ft | 20 kts | 59° |
| 2026-05-07 15:31 | 55.95412 | -3.35458 | 109 ft | 18 kts | 57° |
| 2026-05-07 15:31 | 55.95484 | -3.35423 | 107 ft | 11 kts | 332° |
| 2026-05-07 15:32 | 55.95502 | -3.35442 | 105 ft | 1 kts | 329° |
| 2026-05-07 15:32 | 55.95504 | -3.35445 | 106 ft | 0 kts | 329° |
| 2026-05-07 15:32 | 55.95505 | -3.35446 | 106 ft | 1 kts | 329° |
| 2026-05-07 15:32 | 55.95514 | -3.35455 | 106 ft | 2 kts | 328° |
| 2026-05-07 15:33 | 55.95564 | -3.35539 | 107 ft | 15 kts | 285° |
| 2026-05-07 15:33 | 55.95520 | -3.35712 | 108 ft | 10 kts | 238° |
| 2026-05-07 15:33 | 55.95513 | -3.35733 | 109 ft | 15 kts | 239° |
| 2026-05-07 15:33 | 55.95285 | -3.36403 | 107 ft | 108 kts | 239° |
| 2026-05-07 15:34 | 55.94765 | -3.37927 | 201 ft | 173 kts | 238° |
| 2026-05-07 15:34 | 55.94107 | -3.39878 | 974 ft | 193 kts | 236° |
| 2026-05-07 15:34 | 55.93402 | -3.41938 | 1876 ft | 193 kts | 236° |
| 2026-05-07 15:34 | 55.92709 | -3.43951 | 2634 ft | 190 kts | 236° |
| 2026-05-07 15:35 | 55.92012 | -3.45961 | 3348 ft | 191 kts | 235° |
| 2026-05-07 15:35 | 55.91303 | -3.47988 | 4047 ft | 191 kts | 236° |
| 2026-05-07 15:35 | 55.90623 | -3.49999 | 4807 ft | 189 kts | 241° |
| 2026-05-07 15:35 | 55.90295 | -3.52271 | 5548 ft | 189 kts | 257° |
| 2026-05-07 15:36 | 55.90079 | -3.54592 | 6257 ft | 191 kts | 256° |
| 2026-05-07 15:36 | 55.89847 | -3.56974 | 6869 ft | 200 kts | 256° |
| 2026-05-07 15:36 | 55.89602 | -3.59475 | 7458 ft | 210 kts | 256° |
| 2026-05-07 15:36 | 55.89343 | -3.62108 | 8053 ft | 222 kts | 257° |
| 2026-05-07 15:37 | 55.89069 | -3.64881 | 8658 ft | 233 kts | 257° |
| 2026-05-07 15:37 | 55.88781 | -3.67794 | 9279 ft | 244 kts | 257° |
| 2026-05-07 15:37 | 55.88480 | -3.70840 | 9895 ft | 256 kts | 257° |
| 2026-05-07 15:37 | 55.88163 | -3.74025 | 10450 ft | 267 kts | 257° |
| 2026-05-07 15:38 | 55.87833 | -3.77341 | 11018 ft | 275 kts | 257° |
| 2026-05-07 15:38 | 55.87499 | -3.80689 | 11562 ft | 274 kts | 257° |
| 2026-05-07 15:38 | 55.87160 | -3.84077 | 12146 ft | 282 kts | 257° |
| 2026-05-07 15:38 | 55.86810 | -3.87553 | 12859 ft | 287 kts | 257° |
| 2026-05-07 15:39 | 55.86454 | -3.91082 | 13626 ft | 292 kts | 257° |
| 2026-05-07 15:39 | 55.86091 | -3.94663 | 14317 ft | 296 kts | 257° |
| 2026-05-07 15:39 | 55.85719 | -3.98297 | 15006 ft | 300 kts | 256° |
| 2026-05-07 15:39 | 55.85343 | -4.01971 | 15710 ft | 304 kts | 256° |
| 2026-05-07 15:40 | 55.84876 | -4.05590 | 16408 ft | 304 kts | 248° |
| 2026-05-07 15:40 | 55.84014 | -4.09018 | 17162 ft | 303 kts | 238° |
| 2026-05-07 15:40 | 55.82824 | -4.12105 | 17909 ft | 302 kts | 228° |
| 2026-05-07 15:40 | 55.81453 | -4.14938 | 18616 ft | 303 kts | 227° |
| 2026-05-07 15:41 | 55.80066 | -4.17757 | 19289 ft | 303 kts | 227° |
| 2026-05-07 15:41 | 55.78598 | -4.20433 | 19971 ft | 301 kts | 219° |
| 2026-05-07 15:41 | 55.76917 | -4.22636 | 20685 ft | 300 kts | 213° |
| 2026-05-07 15:41 | 55.75191 | -4.24719 | 21399 ft | 299 kts | 213° |
| 2026-05-07 15:42 | 55.73483 | -4.26785 | 22133 ft | 296 kts | 213° |
| 2026-05-07 15:42 | 55.71802 | -4.28834 | 22870 ft | 290 kts | 214° |
| 2026-05-07 15:42 | 55.70161 | -4.30849 | 23604 ft | 284 kts | 214° |
| 2026-05-07 15:42 | 55.69086 | -4.32177 | 23854 ft | 287 kts | 214° |
| 2026-05-07 15:43 | 55.67404 | -4.34254 | 23921 ft | 301 kts | 214° |
| 2026-05-07 15:43 | 55.65643 | -4.36429 | 23959 ft | 317 kts | 214° |
| 2026-05-07 15:43 | 55.63794 | -4.38711 | 23972 ft | 332 kts | 214° |
| 2026-05-07 15:43 | 55.61859 | -4.41096 | 23970 ft | 347 kts | 214° |
| 2026-05-07 15:44 | 55.59837 | -4.43585 | 23948 ft | 361 kts | 214° |
| 2026-05-07 15:44 | 55.57747 | -4.46155 | 23952 ft | 374 kts | 214° |
| 2026-05-07 15:44 | 55.55570 | -4.48829 | 23970 ft | 385 kts | 214° |
| 2026-05-07 15:44 | 55.53334 | -4.51572 | 23961 ft | 397 kts | 214° |
| 2026-05-07 15:45 | 55.51037 | -4.54385 | 23948 ft | 407 kts | 214° |
| 2026-05-07 15:45 | 55.48684 | -4.57264 | 23949 ft | 416 kts | 214° |
| 2026-05-07 15:45 | 55.46285 | -4.60193 | 23950 ft | 424 kts | 214° |
| 2026-05-07 15:45 | 55.43835 | -4.63180 | 23952 ft | 431 kts | 214° |
| 2026-05-07 15:46 | 55.38871 | -4.69222 | 23947 ft | 433 kts | 214° |
| 2026-05-07 15:46 | 55.36393 | -4.72231 | 23941 ft | 433 kts | 214° |
| 2026-05-07 15:46 | 55.33911 | -4.75239 | 23946 ft | 433 kts | 214° |
| 2026-05-07 15:47 | 55.31423 | -4.78216 | 23936 ft | 432 kts | 212° |
| 2026-05-07 15:47 | 55.28806 | -4.80803 | 23946 ft | 431 kts | 206° |
| 2026-05-07 15:47 | 55.26125 | -4.83141 | 23950 ft | 431 kts | 206° |
| 2026-05-07 15:47 | 55.23436 | -4.85441 | 23947 ft | 430 kts | 206° |
| 2026-05-07 15:48 | 55.20750 | -4.87738 | 23955 ft | 430 kts | 206° |
| 2026-05-07 15:48 | 55.18063 | -4.90054 | 23951 ft | 430 kts | 206° |
| 2026-05-07 15:48 | 55.15382 | -4.92381 | 23958 ft | 430 kts | 206° |
| 2026-05-07 15:48 | 55.12711 | -4.94709 | 23956 ft | 430 kts | 206° |
| 2026-05-07 15:49 | 55.10036 | -4.97043 | 23966 ft | 430 kts | 206° |
| 2026-05-07 15:49 | 55.07366 | -4.99372 | 23955 ft | 430 kts | 206° |
| 2026-05-07 15:49 | 55.04678 | -5.01714 | 23953 ft | 430 kts | 206° |
| 2026-05-07 15:49 | 55.02002 | -5.04041 | 23969 ft | 431 kts | 206° |
| 2026-05-07 15:50 | 54.99313 | -5.06376 | 23962 ft | 431 kts | 206° |
| 2026-05-07 15:50 | 54.96629 | -5.08702 | 23955 ft | 432 kts | 206° |
| 2026-05-07 15:50 | 54.93976 | -5.10999 | 23965 ft | 432 kts | 206° |
| 2026-05-07 15:50 | 54.91279 | -5.13328 | 23965 ft | 433 kts | 206° |
| 2026-05-07 15:51 | 54.88544 | -5.15516 | 23960 ft | 433 kts | 201° |
| 2026-05-07 15:51 | 54.85663 | -5.17040 | 23948 ft | 434 kts | 193° |
| 2026-05-07 15:51 | 54.82695 | -5.18079 | 23955 ft | 434 kts | 192° |
| 2026-05-07 15:51 | 54.79735 | -5.19113 | 23962 ft | 435 kts | 192° |
| 2026-05-07 15:52 | 54.76772 | -5.20167 | 23960 ft | 435 kts | 192° |
| 2026-05-07 15:52 | 54.73803 | -5.21241 | 23957 ft | 435 kts | 193° |
| 2026-05-07 15:52 | 54.70841 | -5.22322 | 23968 ft | 435 kts | 193° |
| 2026-05-07 15:52 | 54.67878 | -5.23409 | 23956 ft | 436 kts | 193° |
| 2026-05-07 15:53 | 54.64909 | -5.24498 | 23950 ft | 436 kts | 193° |
| 2026-05-07 15:53 | 54.61942 | -5.25585 | 23955 ft | 436 kts | 193° |
| 2026-05-07 15:53 | 54.58974 | -5.26669 | 23951 ft | 436 kts | 193° |
| 2026-05-07 15:53 | 54.56001 | -5.27754 | 23959 ft | 437 kts | 193° |
| 2026-05-07 15:54 | 54.53028 | -5.28836 | 23971 ft | 437 kts | 193° |
| 2026-05-07 15:54 | 54.50063 | -5.29972 | 23950 ft | 437 kts | 196° |
| 2026-05-07 15:54 | 54.47194 | -5.31667 | 23958 ft | 436 kts | 205° |
| 2026-05-07 15:54 | 54.44479 | -5.33963 | 23974 ft | 436 kts | 207° |
| 2026-05-07 15:55 | 54.41766 | -5.36313 | 23965 ft | 436 kts | 207° |
| 2026-05-07 15:55 | 54.39056 | -5.38643 | 23969 ft | 436 kts | 207° |
| 2026-05-07 15:55 | 54.36334 | -5.40961 | 23953 ft | 436 kts | 206° |
| 2026-05-07 15:55 | 54.33613 | -5.43258 | 23971 ft | 436 kts | 206° |
| 2026-05-07 15:56 | 54.30888 | -5.45546 | 23961 ft | 437 kts | 206° |
| 2026-05-07 15:56 | 54.28152 | -5.47836 | 23962 ft | 437 kts | 206° |
| 2026-05-07 15:56 | 54.25423 | -5.50116 | 23971 ft | 437 kts | 206° |
| 2026-05-07 15:56 | 54.22693 | -5.52394 | 23959 ft | 437 kts | 206° |
| 2026-05-07 15:57 | 54.19959 | -5.54673 | 23969 ft | 437 kts | 206° |
| 2026-05-07 15:57 | 54.17261 | -5.56920 | 23954 ft | 437 kts | 206° |
| 2026-05-07 15:57 | 54.14523 | -5.59196 | 23966 ft | 437 kts | 206° |
| 2026-05-07 15:57 | 54.11792 | -5.61470 | 23967 ft | 438 kts | 206° |
| 2026-05-07 15:58 | 54.09055 | -5.63753 | 23958 ft | 438 kts | 206° |
| 2026-05-07 15:58 | 54.06320 | -5.66035 | 23967 ft | 438 kts | 207° |
| 2026-05-07 15:58 | 54.03588 | -5.68312 | 23957 ft | 438 kts | 207° |
| 2026-05-07 15:58 | 54.00851 | -5.70589 | 23966 ft | 438 kts | 207° |
| 2026-05-07 15:59 | 53.98117 | -5.72858 | 23972 ft | 438 kts | 207° |
| 2026-05-07 15:59 | 53.95383 | -5.75124 | 23959 ft | 438 kts | 207° |
| 2026-05-07 15:59 | 53.92638 | -5.77393 | 23965 ft | 438 kts | 207° |
| 2026-05-07 15:59 | 53.89893 | -5.79653 | 23962 ft | 438 kts | 207° |
| 2026-05-07 16:00 | 53.87152 | -5.81904 | 23964 ft | 438 kts | 207° |
| 2026-05-07 16:00 | 53.84397 | -5.84101 | 23953 ft | 439 kts | 202° |
| 2026-05-07 16:00 | 53.81451 | -5.85481 | 23980 ft | 440 kts | 193° |
| 2026-05-07 16:00 | 53.78529 | -5.86775 | 23744 ft | 427 kts | 198° |
| 2026-05-07 16:01 | 53.75750 | -5.88375 | 23249 ft | 417 kts | 205° |
| 2026-05-07 16:01 | 53.73301 | -5.90853 | 22734 ft | 407 kts | 219° |
| 2026-05-07 16:01 | 53.71313 | -5.94090 | 22261 ft | 398 kts | 229° |
| 2026-05-07 16:01 | 53.69656 | -5.97752 | 21762 ft | 385 kts | 238° |
| 2026-05-07 16:02 | 53.68355 | -6.01616 | 21139 ft | 374 kts | 240° |
| 2026-05-07 16:02 | 53.67108 | -6.05403 | 20511 ft | 365 kts | 240° |
| 2026-05-07 16:02 | 53.65886 | -6.09088 | 19907 ft | 356 kts | 239° |
| 2026-05-07 16:02 | 53.64680 | -6.12697 | 19308 ft | 349 kts | 239° |
| 2026-05-07 16:03 | 53.63494 | -6.16221 | 18726 ft | 343 kts | 239° |
| 2026-05-07 16:03 | 53.62324 | -6.19681 | 18146 ft | 337 kts | 239° |
| 2026-05-07 16:03 | 53.61168 | -6.23091 | 17489 ft | 332 kts | 239° |
| 2026-05-07 16:03 | 53.60030 | -6.26443 | 16855 ft | 328 kts | 239° |
| 2026-05-07 16:04 | 53.58904 | -6.29754 | 16227 ft | 324 kts | 239° |
| 2026-05-07 16:04 | 53.57789 | -6.33023 | 15610 ft | 320 kts | 239° |
| 2026-05-07 16:04 | 53.56701 | -6.36264 | 15005 ft | 317 kts | 243° |
| 2026-05-07 16:04 | 53.56063 | -6.39792 | 14403 ft | 316 kts | 259° |
| 2026-05-07 16:05 | 53.55800 | -6.43440 | 13840 ft | 313 kts | 261° |
| 2026-05-07 16:05 | 53.55568 | -6.47067 | 13210 ft | 310 kts | 262° |
| 2026-05-07 16:05 | 53.55335 | -6.50658 | 12558 ft | 308 kts | 261° |
| 2026-05-07 16:05 | 53.55094 | -6.54218 | 11951 ft | 305 kts | 261° |
| 2026-05-07 16:06 | 53.54847 | -6.57740 | 11387 ft | 301 kts | 261° |
| 2026-05-07 16:06 | 53.54597 | -6.61217 | 10829 ft | 298 kts | 261° |
| 2026-05-07 16:06 | 53.54349 | -6.64651 | 10341 ft | 293 kts | 261° |
| 2026-05-07 16:06 | 53.54159 | -6.68026 | 9887 ft | 289 kts | 270° |
| 2026-05-07 16:07 | 53.54626 | -6.71291 | 9396 ft | 289 kts | 293° |
| 2026-05-07 16:07 | 53.55785 | -6.74024 | 8923 ft | 289 kts | 314° |
| 2026-05-07 16:07 | 53.57457 | -6.75867 | 8441 ft | 290 kts | 336° |
| 2026-05-07 16:07 | 53.59424 | -6.76528 | 7970 ft | 290 kts | 359° |
| 2026-05-07 16:08 | 53.61389 | -6.75857 | 7504 ft | 290 kts | 23° |
| 2026-05-07 16:08 | 53.63031 | -6.73964 | 7045 ft | 286 kts | 47° |
| 2026-05-07 16:08 | 53.64150 | -6.71231 | 6608 ft | 282 kts | 67° |
| 2026-05-07 16:08 | 53.64663 | -6.68088 | 6163 ft | 277 kts | 84° |
| 2026-05-07 16:09 | 53.64895 | -6.64888 | 5705 ft | 275 kts | 86° |
| 2026-05-07 16:09 | 53.65107 | -6.61691 | 5238 ft | 274 kts | 86° |
| 2026-05-07 16:09 | 53.65323 | -6.58533 | 4968 ft | 265 kts | 86° |
| 2026-05-07 16:09 | 53.65532 | -6.55544 | 4917 ft | 251 kts | 87° |
| 2026-05-07 16:10 | 53.65387 | -6.52684 | 4938 ft | 243 kts | 110° |
| 2026-05-07 16:10 | 53.64685 | -6.50108 | 4946 ft | 242 kts | 127° |
| 2026-05-07 16:10 | 53.63597 | -6.48044 | 4941 ft | 237 kts | 144° |
| 2026-05-07 16:10 | 53.62185 | -6.46647 | 4929 ft | 231 kts | 162° |
| 2026-05-07 16:11 | 53.60633 | -6.46094 | 4934 ft | 227 kts | 180° |
| 2026-05-07 16:11 | 53.59099 | -6.46378 | 4950 ft | 224 kts | 197° |
| 2026-05-07 16:11 | 53.57688 | -6.47446 | 4932 ft | 222 kts | 214° |
| 2026-05-07 16:11 | 53.56560 | -6.49121 | 4922 ft | 211 kts | 227° |
| 2026-05-07 16:12 | 53.55709 | -6.51032 | 4923 ft | 198 kts | 236° |
| 2026-05-07 16:12 | 53.55229 | -6.53098 | 4925 ft | 188 kts | 261° |
| 2026-05-07 16:12 | 53.55079 | -6.55254 | 4916 ft | 183 kts | 259° |
| 2026-05-07 16:12 | 53.54909 | -6.57354 | 4928 ft | 179 kts | 259° |
| 2026-05-07 16:13 | 53.54748 | -6.59414 | 4934 ft | 177 kts | 259° |
| 2026-05-07 16:13 | 53.54592 | -6.61460 | 4939 ft | 176 kts | 259° |
| 2026-05-07 16:13 | 53.54438 | -6.63521 | 4953 ft | 180 kts | 260° |
| 2026-05-07 16:13 | 53.54282 | -6.65628 | 4928 ft | 181 kts | 260° |
| 2026-05-07 16:14 | 53.54020 | -6.67653 | 4904 ft | 175 kts | 236° |
| 2026-05-07 16:14 | 53.53077 | -6.68893 | 4904 ft | 181 kts | 196° |
| 2026-05-07 16:14 | 53.51826 | -6.69049 | 4920 ft | 183 kts | 176° |
| 2026-05-07 16:14 | 53.50566 | -6.68841 | 4928 ft | 182 kts | 177° |
| 2026-05-07 16:15 | 53.49318 | -6.68710 | 4930 ft | 178 kts | 180° |
| 2026-05-07 16:15 | 53.48086 | -6.68624 | 4932 ft | 177 kts | 180° |
| 2026-05-07 16:15 | 53.46851 | -6.68538 | 4932 ft | 178 kts | 180° |
| 2026-05-07 16:15 | 53.45613 | -6.68427 | 4935 ft | 179 kts | 172° |
| 2026-05-07 16:16 | 53.44538 | -6.67347 | 4888 ft | 198 kts | 126° |
| 2026-05-07 16:16 | 53.44100 | -6.64967 | 4948 ft | 223 kts | 103° |
| 2026-05-07 16:16 | 53.43914 | -6.62362 | 4810 ft | 224 kts | 97° |
| 2026-05-07 16:16 | 53.43820 | -6.59799 | 4684 ft | 218 kts | 96° |
| 2026-05-07 16:17 | 53.43715 | -6.57229 | 4298 ft | 223 kts | 97° |
| 2026-05-07 16:17 | 53.43594 | -6.54633 | 3907 ft | 225 kts | 97° |
| 2026-05-07 16:17 | 53.43467 | -6.52001 | 3541 ft | 227 kts | 97° |
| 2026-05-07 16:17 | 53.43340 | -6.49406 | 3208 ft | 224 kts | 98° |
| 2026-05-07 16:18 | 53.43208 | -6.46885 | 2874 ft | 210 kts | 98° |
| 2026-05-07 16:18 | 53.43085 | -6.44515 | 2530 ft | 197 kts | 99° |
| 2026-05-07 16:18 | 53.42974 | -6.42291 | 2166 ft | 187 kts | 97° |
| 2026-05-07 16:18 | 53.42904 | -6.40118 | 1748 ft | 183 kts | 96° |
| 2026-05-07 16:19 | 53.42802 | -6.38062 | 1603 ft | 167 kts | 99° |
| 2026-05-07 16:19 | 53.42677 | -6.36200 | 1361 ft | 158 kts | 101° |
| 2026-05-07 16:19 | 53.42552 | -6.34390 | 1092 ft | 157 kts | 100° |
| 2026-05-07 16:19 | 53.42448 | -6.32570 | 772 ft | 156 kts | 101° |
| 2026-05-07 16:20 | 53.42346 | -6.30787 | 527 ft | 153 kts | 100° |
| 2026-05-07 16:20 | 53.42249 | -6.29032 | 298 ft | 149 kts | 100° |
| 2026-05-07 16:20 | 53.42151 | -6.27406 | 234 ft | 124 kts | 94° |
| 2026-05-07 16:20 | 53.42092 | -6.26222 | 222 ft | 80 kts | 95° |
| 2026-05-07 16:21 | 53.42058 | -6.25546 | 218 ft | 37 kts | 78° |
| 2026-05-07 16:21 | 53.42106 | -6.25389 | 216 ft | 0 kts | 63° |
| 2026-05-07 16:21 | 53.42106 | -6.25388 | 216 ft | 0 kts | 63° |
| 2026-05-07 16:21 | 53.42128 | -6.25312 | 216 ft | 14 kts | 62° |
| 2026-05-07 16:22 | 53.42188 | -6.25132 | 211 ft | 23 kts | 61° |
| 2026-05-07 16:22 | 53.42262 | -6.24945 | 216 ft | 19 kts | 47° |
| 2026-05-07 16:22 | 53.42362 | -6.24856 | 215 ft | 17 kts | 346° |
| 2026-05-07 16:22 | 53.42464 | -6.24934 | 225 ft | 16 kts | 338° |
| 2026-05-07 16:23 | 53.42562 | -6.25004 | 222 ft | 15 kts | 336° |
| 2026-05-07 16:23 | 53.42656 | -6.25073 | 219 ft | 14 kts | 336° |
| 2026-05-07 16:23 | 53.42728 | -6.25179 | 217 ft | 13 kts | 315° |
| 2026-05-07 16:23 | 53.42795 | -6.25243 | 220 ft | 10 kts | 337° |
| 2026-05-07 16:24 | 53.42855 | -6.25284 | 221 ft | 10 kts | 338° |
| 2026-05-07 16:24 | 53.42931 | -6.25350 | 222 ft | 15 kts | 328° |
| 2026-05-07 16:24 | 53.43034 | -6.25432 | 225 ft | 19 kts | 336° |
| 2026-05-07 16:24 | 53.43146 | -6.25510 | 222 ft | 11 kts | 347° |
| 2026-05-07 16:25 | 53.43216 | -6.25433 | 220 ft | 15 kts | 52° |
| 2026-05-07 16:25 | 53.43253 | -6.25258 | 220 ft | 16 kts | 95° |
| 2026-05-07 16:25 | 53.43243 | -6.25080 | 221 ft | 15 kts | 94° |
| 2026-05-07 16:25 | 53.43241 | -6.24940 | 219 ft | 4 kts | 45° |
| 2026-05-07 16:26 | 53.43274 | -6.24932 | 220 ft | 6 kts | 3° |
| 2026-05-07 16:26 | 53.43294 | -6.24929 | 220 ft | 0 kts | 5° |